• Join FlightAware (Why Join?)
  • Login
  • US Flag 
06:30AM EDT


 

Airport Tracker/Info


-or-


 

Live Flight TrackerFlight Track Log ✈ MAL7056 ✈ 12-Jul-2013 ✈ CYTS - CYSB

Flight Track Log - Related Links

Times and Time Zones

All times are in EDT time to prevent confusion due to time zone crossing. See the MAL7056 flight status page for this flight to view local times or setup timezone preferences in your user account.

Time Position Orientation Groundspeed Altitude Reporting Facility
EDT Latitude Longitude Course Direction KTS MPH feet Rate Location/Type
03:58PM 48.3103 -81.4881 196° South  Level FlightAware Approximate
03:59PM 48.3016 -81.4217 101° East  Level FlightAware Approximate
04:00PM 48.2580 -81.4050 168° South  Level Estimated
04:01PM 48.2158 -81.3816 160° South  Level FlightAware Approximate
04:02PM 48.1736 -81.3582 160° South  Level FlightAware Approximate
04:03PM 48.1314 -81.3348 160° South  Level FlightAware Approximate
04:04PM 48.0892 -81.3115 160° South  Level FlightAware Approximate
04:05PM 48.0470 -81.2883 160° South  Level FlightAware Approximate
04:06PM 48.0047 -81.2650 160° South  Level FlightAware Approximate
04:07PM 47.9625 -81.2418 160° South  Level FlightAware Approximate
04:08PM 47.9203 -81.2187 160° South  Level FlightAware Approximate
04:09PM 47.8781 -81.1956 160° South  Level FlightAware Approximate
04:10PM 47.8358 -81.1725 160° South  Level FlightAware Approximate
04:11PM 47.7936 -81.1495 160° South  Level FlightAware Approximate
04:12PM 47.7495 -81.1359 168° South  Level Estimated
04:13PM 47.7057 -81.1209 167° South  Level FlightAware Approximate
04:14PM 47.6618 -81.1059 167° South  Level FlightAware Approximate
04:15PM 47.6180 -81.0910 167° South  Level FlightAware Approximate
04:16PM 47.5742 -81.0760 167° South  Level FlightAware Approximate
04:17PM 47.5303 -81.0611 167° South  Level FlightAware Approximate
04:18PM 47.4865 -81.0462 167° South  Level FlightAware Approximate
04:18PM 47.6000 -81.0667 169° South 150 173 7,100  Level Toronto Center
04:19PM 47.4426 -81.0313 167° South  Level FlightAware Approximate
04:19PM 47.5667 -81.0667 180° South 160 184 7,100  Level Toronto Center
04:20PM 47.3988 -81.0165 167° South  Level FlightAware Approximate
04:20PM 47.5167 -81.0667 180° South 160 184 7,100  Level Toronto Center
04:21PM 47.3546 -81.0039 169° South  Level Estimated
04:21PM 47.4667 -81.0333 156° South 150 173 7,000  Level Toronto Center
04:22PM 47.3104 -80.9914 169° South  Level FlightAware Approximate
04:22PM 47.4333 -81.0333 180° South 160 184 6,900  Level Toronto Center
04:23PM 47.2662 -80.9790 169° South  Level FlightAware Approximate
04:23PM 47.3833 -81.0167 167° South 160 184 6,800  Level Toronto Center
04:24PM 47.3500 -80.9833 146° Southeast 160 184 7,000 60 Climbing Toronto Center
04:25PM 47.3000 -80.9833 180° South 160 184 7,000 -60 Level Toronto Center
04:26PM 47.2667 -80.9500 146° Southeast 160 184 6,900 -240 Descending Toronto Center
04:27PM 47.2167 -80.9333 167° South 160 184 6,600 -300 Descending Toronto Center
04:28PM 47.1667 -80.9333 180° South 160 184 6,300 -420 Descending Toronto Center
04:29PM 47.1500 -80.9000 126° Southeast 160 184 5,800 -600 Descending Toronto Center
04:30PM 47.1000 -80.9000 180° South 160 184 5,200 -360 Descending Toronto Center
04:31PM 47.0667 -80.8833 161° South 160 184 5,100 -60 Descending Toronto Center
04:32PM 47.0167 -80.8833 180° South 150 173 5,100  Level Toronto Center
04:33PM 46.9833 -80.8833 180° South 160 184 5,100  Level Toronto Center
04:34PM 46.9333 -80.8500 156° South 160 184 5,100  Level Toronto Center
04:35PM 46.8833 -80.8500 180° South 150 173 5,100  Level Toronto Center
04:36PM 46.8500 -80.8333 161° South 160 184 5,100 -300 Level Toronto Center
04:37PM 46.8000 -80.8167 167° South 160 184 4,600 -780 Descending Toronto Center
04:38PM 46.7667 -80.8000 161° South 170 196 3,600 -960 Descending Toronto Center
04:39PM 46.7167 -80.7667 155° Southeast 170 196 2,700 -660 Descending Toronto Center
04:40PM 46.6667 -80.7500 167° South 160 184 2,300 -540 Descending Toronto Center
04:41PM 46.6333 -80.7667 199° South 150 173 1,700 -600 Descending Toronto Center